KMHT/MHT METAR and TAF weather

Enter ICAO airport designator
Station Type Date Time Source
KMHT METAR 2020/01/26 00:53 UTC NOAA

KMHT 260053Z 07015G21KT 3SM -RA BR OVC008 05/04 A2983 RMK AO2 SFC VIS 3 PRESFR SLP117 P0008 T00500039


Station Type Date Time Source
KMHT Decoded METAR 2020/01/26 00:53 UTC NOAA

MANCHESTER AIRPORT, NH, United States (KMHT) 42-56N 071-26W 81M
Jan 25, 2020 - 07:53 PM EST / 2020.01.26 0053 UTC
Wind: from the ENE (070 degrees) at 17 MPH (15 KT) gusting to 24 MPH (21 KT):0
Visibility: 3 mile(s):0
Sky conditions: overcast
Weather: light rain; mist
Precipitation last hour: 0.08 inches
Temperature: 41.0 F (5.0 C)
Dew Point: 39.0 F (3.9 C)
Relative Humidity: 92%
Pressure (altimeter): 29.83 in. Hg (1010 hPa)
Pressure tendency: falling rapidly
ob: KMHT 260053Z 07015G21KT 3SM -RA BR OVC008 05/04 A2983 RMK AO2 SFC VIS 3 PRESFR SLP117 P0008 T00500039
cycle: 1

Station Type Date Time Source
KMHT TAF 2020/01/25 20:06 UTC NOAA

TAF
AMD KMHT 252004Z 2520/2618 06008KT 6SM -DZ OVC006
FM252300 08010G17KT 4SM -RA OVC006 WS020/10040KT
FM260200 08015G25KT 2SM +RA OVC004 WS015/11040KT
FM260600 VRB04KT 5SM BR OVC006
FM261400 26007KT P6SM SCT025 SCT250

Example: see airport list